createdAt,value
2022-10-03T00:01:15.760Z,18.58
2022-10-03T00:03:55.414Z,17.00
2022-10-03T00:06:35.316Z,13.27
2022-10-03T00:09:19.484Z,17.27
2022-10-03T00:12:00.797Z,16.48
2022-10-03T00:14:41.256Z,12.43
2022-10-03T00:17:18.133Z,16.75
2022-10-03T00:19:54.201Z,18.88
2022-10-03T00:22:33.835Z,16.63
2022-10-03T00:25:24.887Z,18.00
2022-10-03T00:28:09.123Z,14.95
2022-10-03T00:30:54.500Z,14.70
2022-10-03T00:33:31.344Z,19.88
2022-10-03T00:36:09.523Z,18.40
2022-10-03T00:39:04.668Z,21.17
2022-10-03T00:41:57.638Z,16.63
2022-10-03T00:44:50.521Z,13.52
2022-10-03T00:47:46.662Z,17.80
2022-10-03T00:50:44.357Z,19.85
2022-10-03T00:53:30.164Z,15.32
2022-10-03T00:56:15.649Z,16.92
2022-10-03T00:59:03.112Z,21.60
2022-10-03T01:01:38.524Z,21.15
2022-10-03T01:04:23.369Z,17.85
2022-10-03T01:07:03.745Z,17.55
2022-10-03T01:09:47.949Z,16.98
2022-10-03T01:12:35.151Z,19.55
2022-10-03T01:15:23.797Z,18.75
2022-10-03T01:18:15.365Z,23.40
2022-10-03T01:20:54.377Z,22.55
2022-10-03T01:24:13.701Z,19.73
2022-10-03T01:26:56.896Z,16.83
2022-10-03T01:30:04.838Z,18.50
2022-10-03T01:32:41.205Z,20.17
2022-10-03T01:35:26.033Z,16.67
2022-10-03T01:38:01.831Z,16.48
2022-10-03T01:40:34.875Z,24.52
2022-10-03T01:43:11.958Z,17.20
2022-10-03T01:45:52.814Z,17.88
2022-10-03T01:48:28.755Z,16.77
2022-10-03T01:51:03.115Z,20.00
2022-10-03T01:53:42.348Z,17.95
2022-10-03T01:56:20.390Z,22.92
2022-10-03T01:58:58.806Z,27.52
2022-10-03T02:01:37.778Z,18.38
2022-10-03T02:04:16.991Z,15.73
2022-10-03T02:06:55.412Z,22.73
2022-10-03T02:09:35.225Z,15.68
2022-10-03T02:12:09.746Z,18.02
2022-10-03T02:14:48.535Z,22.23
2022-10-03T02:17:30.736Z,22.65
2022-10-03T02:20:14.936Z,19.83
2022-10-03T02:22:47.650Z,19.90
2022-10-03T02:25:26.835Z,20.67
2022-10-03T02:28:37.927Z,22.13
2022-10-03T02:31:37.718Z,16.95
2022-10-03T02:34:34.332Z,17.88
2022-10-03T02:37:28.783Z,21.35
2022-10-03T02:40:33.108Z,22.67
2022-10-03T02:43:33.196Z,27.17
2022-10-03T02:46:23.309Z,24.48
2022-10-03T02:49:36.497Z,23.90
2022-10-03T02:52:39.471Z,14.75
2022-10-03T02:55:44.776Z,22.42
2022-10-03T02:58:50.652Z,19.88
2022-10-03T03:02:01.060Z,20.38
2022-10-03T03:05:02.284Z,18.67
2022-10-03T03:08:00.044Z,16.90
2022-10-03T03:10:53.475Z,23.13
2022-10-03T03:13:55.024Z,18.90
2022-10-03T03:16:48.010Z,23.50
2022-10-03T03:19:47.316Z,21.00
2022-10-03T03:22:33.245Z,20.92
2022-10-03T03:25:43.204Z,23.02
2022-10-03T03:28:27.793Z,20.08
2022-10-03T03:31:06.725Z,18.70
2022-10-03T03:33:46.022Z,23.05
2022-10-03T03:36:24.203Z,22.35
2022-10-03T03:39:04.449Z,19.42
2022-10-03T03:41:47.618Z,17.98
2022-10-03T03:44:45.080Z,21.83
2022-10-03T03:47:36.985Z,21.30
2022-10-03T03:50:28.244Z,17.80
2022-10-03T03:53:15.528Z,15.95
2022-10-03T03:55:56.441Z,25.77
2022-10-03T03:58:34.027Z,24.58
2022-10-03T04:01:31.899Z,20.83
2022-10-03T04:04:13.026Z,28.33
2022-10-03T04:06:54.680Z,24.55
2022-10-03T04:10:00.072Z,21.63
2022-10-03T04:12:38.908Z,26.50
2022-10-03T04:15:25.061Z,22.70
2022-10-03T04:18:40.690Z,13.80
2022-10-03T04:21:33.884Z,16.40
2022-10-03T04:24:44.168Z,16.05
2022-10-03T04:27:39.213Z,16.38
2022-10-03T04:30:14.826Z,19.90
2022-10-03T04:32:59.020Z,18.77
2022-10-03T04:36:08.616Z,17.38
2022-10-03T04:38:45.220Z,16.83
2022-10-03T04:41:23.830Z,18.27
2022-10-03T04:44:01.061Z,16.50
2022-10-03T04:46:36.537Z,15.38
2022-10-03T04:49:15.405Z,20.15
2022-10-03T04:51:55.576Z,19.88
2022-10-03T04:54:34.962Z,22.75
2022-10-03T04:57:09.165Z,22.17
2022-10-03T04:59:49.338Z,16.50
2022-10-03T05:02:37.937Z,22.90
2022-10-03T05:05:27.320Z,19.85
2022-10-03T05:08:05.575Z,21.05
2022-10-03T05:10:50.410Z,17.65
2022-10-03T05:13:30.724Z,14.45
2022-10-03T05:16:09.086Z,18.10
2022-10-03T05:18:45.036Z,22.50
2022-10-03T05:21:22.492Z,18.77
2022-10-03T05:24:04.029Z,23.67
2022-10-03T05:26:46.292Z,25.33
2022-10-03T05:29:25.420Z,25.15
2022-10-03T05:32:13.867Z,19.02
2022-10-03T05:34:58.722Z,17.65
2022-10-03T05:37:47.665Z,20.42
2022-10-03T05:40:21.267Z,21.60
2022-10-03T05:43:14.174Z,18.15
2022-10-03T05:45:50.633Z,20.15
2022-10-03T05:48:34.364Z,21.48
2022-10-03T05:51:43.048Z,20.92
2022-10-03T05:54:43.697Z,20.10
2022-10-03T05:58:02.517Z,14.73
2022-10-03T06:00:46.085Z,16.15
2022-10-03T06:04:06.588Z,13.23
2022-10-03T06:06:52.422Z,17.80
2022-10-03T06:10:03.035Z,14.63
2022-10-03T06:12:40.263Z,12.30
2022-10-03T06:15:59.630Z,13.90
2022-10-03T06:19:03.885Z,13.30
2022-10-03T06:22:00.292Z,20.90
2022-10-03T06:25:06.336Z,29.15
2022-10-03T06:28:09.110Z,23.58
2022-10-03T06:31:29.703Z,14.35
2022-10-03T06:34:48.847Z,15.95
2022-10-03T06:38:06.896Z,13.55
2022-10-03T06:41:11.957Z,15.70
2022-10-03T06:43:58.554Z,12.98
2022-10-03T06:47:20.293Z,12.50
2022-10-03T06:50:14.068Z,10.93
2022-10-03T06:53:05.029Z,9.93
2022-10-03T06:56:12.411Z,13.65
2022-10-03T06:59:30.077Z,10.50
2022-10-03T07:02:20.223Z,13.20
2022-10-03T07:05:19.737Z,11.00
2022-10-03T07:08:15.791Z,11.00
2022-10-03T07:10:57.660Z,13.55
2022-10-03T07:13:52.334Z,9.25
2022-10-03T07:16:50.801Z,11.60
2022-10-03T07:19:52.088Z,11.68
2022-10-03T07:23:02.930Z,11.77
2022-10-03T07:26:00.965Z,15.90
2022-10-03T07:28:59.177Z,12.02
2022-10-03T07:31:41.579Z,12.70
2022-10-03T07:34:34.161Z,11.38
2022-10-03T07:37:40.176Z,11.38
2022-10-03T07:40:51.038Z,10.25
2022-10-03T07:43:53.630Z,12.40
2022-10-03T07:46:54.413Z,10.98
2022-10-03T07:49:41.197Z,10.10
2022-10-03T07:52:41.961Z,9.02
2022-10-03T07:55:26.842Z,11.73
2022-10-03T07:58:29.587Z,11.43
2022-10-03T08:01:18.552Z,13.40
2022-10-03T08:04:16.262Z,9.77
2022-10-03T08:06:46.066Z,9.00
2022-10-03T08:09:52.485Z,10.68
2022-10-03T08:12:47.897Z,12.43
2022-10-03T08:15:30.708Z,8.15
2022-10-03T08:18:41.672Z,8.57
2022-10-03T08:21:17.195Z,7.68
2022-10-03T08:24:10.003Z,9.65
2022-10-03T08:27:05.598Z,10.02
2022-10-03T08:30:04.094Z,6.35
2022-10-03T08:32:59.818Z,11.80
2022-10-03T08:35:49.528Z,8.90
2022-10-03T08:38:48.191Z,7.95
2022-10-03T08:42:23.917Z,8.43
2022-10-03T08:45:20.413Z,6.88
2022-10-03T08:48:37.846Z,9.98
2022-10-03T08:51:43.343Z,7.47
2022-10-03T08:54:36.528Z,10.02
2022-10-03T08:57:49.814Z,7.90
2022-10-03T09:00:22.085Z,10.38
2022-10-03T09:03:43.118Z,11.70
2022-10-03T09:07:16.641Z,10.70
2022-10-03T09:10:21.008Z,10.68
2022-10-03T09:13:17.778Z,11.98
2022-10-03T09:16:26.460Z,8.88
2022-10-03T09:19:16.811Z,9.18
2022-10-03T09:22:24.128Z,9.48
2022-10-03T09:25:16.301Z,11.32
2022-10-03T09:28:25.374Z,10.40
2022-10-03T09:31:05.311Z,10.30
2022-10-03T09:34:13.635Z,10.48
2022-10-03T09:37:25.165Z,9.35
2022-10-03T09:40:20.177Z,11.57
2022-10-03T09:43:32.896Z,11.93
2022-10-03T09:46:40.884Z,10.45
2022-10-03T09:50:07.274Z,14.48
2022-10-03T09:52:52.531Z,13.65
2022-10-03T09:55:47.179Z,13.02
2022-10-03T09:58:46.439Z,14.77
2022-10-03T10:01:28.479Z,12.05
2022-10-03T10:04:54.404Z,13.57
2022-10-03T10:08:09.817Z,13.23
2022-10-03T10:10:59.563Z,12.43
2022-10-03T10:14:08.654Z,12.80
2022-10-03T10:17:05.959Z,16.23
2022-10-03T10:20:05.931Z,15.40
2022-10-03T10:23:09.240Z,12.80
2022-10-03T10:26:30.824Z,13.50
2022-10-03T10:29:33.307Z,13.63
2022-10-03T10:32:31.907Z,13.50
2022-10-03T10:35:38.220Z,16.08
2022-10-03T10:38:28.687Z,11.93
2022-10-03T10:41:26.316Z,14.13
2022-10-03T10:44:31.116Z,14.57
2022-10-03T10:47:41.597Z,17.02
2022-10-03T10:50:48.739Z,16.15
2022-10-03T10:53:54.692Z,15.05
2022-10-03T10:57:05.763Z,12.82
2022-10-03T11:00:28.651Z,14.40
2022-10-03T11:03:31.501Z,16.73
2022-10-03T11:06:53.609Z,15.13
2022-10-03T11:09:48.604Z,15.45
2022-10-03T11:12:56.650Z,14.35
2022-10-03T11:16:01.163Z,11.00
2022-10-03T11:19:17.985Z,10.48
2022-10-03T11:22:37.550Z,13.30
2022-10-03T11:25:46.410Z,11.88
2022-10-03T11:29:06.103Z,11.32
2022-10-03T11:32:15.817Z,10.85
2022-10-03T11:35:15.169Z,14.52
2022-10-03T11:37:47.398Z,10.63
2022-10-03T11:40:32.546Z,12.25
2022-10-03T11:43:33.403Z,10.63
2022-10-03T11:46:19.275Z,11.45
2022-10-03T11:48:54.616Z,13.07
2022-10-03T11:51:35.679Z,13.00
2022-10-03T11:54:30.436Z,12.63
2022-10-03T11:57:06.564Z,9.50
2022-10-03T11:59:43.361Z,13.07
2022-10-03T12:02:17.713Z,9.02
2022-10-03T12:04:58.758Z,9.80
2022-10-03T12:08:04.492Z,13.30
2022-10-03T12:10:43.788Z,8.60
2022-10-03T12:13:16.712Z,10.50
2022-10-03T12:15:49.579Z,11.68
2022-10-03T12:18:22.497Z,13.80
2022-10-03T12:21:06.705Z,10.00
2022-10-03T12:23:56.079Z,11.07
2022-10-03T12:26:43.754Z,10.88
2022-10-03T12:29:14.133Z,10.18
2022-10-03T12:31:47.181Z,11.43
2022-10-03T12:34:30.960Z,12.40
2022-10-03T12:39:42.903Z,12.00
2022-10-03T12:42:29.612Z,12.40
2022-10-03T12:45:02.587Z,11.88
2022-10-03T12:47:56.713Z,9.90
2022-10-03T12:50:40.398Z,8.82
2022-10-03T12:53:24.154Z,8.50
2022-10-03T12:58:41.397Z,9.70
2022-10-03T13:01:19.208Z,10.45
2022-10-03T13:03:53.725Z,10.82
2022-10-03T13:07:03.205Z,9.98
2022-10-03T13:09:58.214Z,10.48
2022-10-03T13:12:43.666Z,9.15
2022-10-03T13:15:42.052Z,11.68
2022-10-03T13:18:23.813Z,11.65
2022-10-03T13:21:26.817Z,9.75
2022-10-03T13:24:02.193Z,11.35
2022-10-03T13:26:44.132Z,9.98
2022-10-03T13:29:26.929Z,9.32
2022-10-03T13:32:18.935Z,11.13
2022-10-03T13:35:34.433Z,8.85
2022-10-03T13:38:49.657Z,16.48
2022-10-03T13:41:27.647Z,10.95
2022-10-03T13:44:00.893Z,10.80
2022-10-03T13:46:39.193Z,9.70
2022-10-03T13:49:18.797Z,8.90
2022-10-03T13:51:54.480Z,10.73
2022-10-03T13:54:41.616Z,10.10
2022-10-03T13:57:16.720Z,10.73
2022-10-03T14:00:04.752Z,12.43
2022-10-03T14:03:01.728Z,12.50
2022-10-03T14:05:59.248Z,11.48
2022-10-03T14:08:44.124Z,13.95
2022-10-03T14:11:30.346Z,11.70
2022-10-03T14:14:20.169Z,12.15
2022-10-03T14:16:58.886Z,9.57
2022-10-03T14:19:36.789Z,10.38
2022-10-03T14:22:33.631Z,9.88
2022-10-03T14:25:16.747Z,8.95
2022-10-03T14:27:52.101Z,13.55
2022-10-03T14:30:23.238Z,9.70
2022-10-03T14:33:03.152Z,8.93
2022-10-03T14:35:42.484Z,11.45
2022-10-03T14:38:21.659Z,7.65
2022-10-03T14:40:54.064Z,11.52
2022-10-03T14:43:32.578Z,12.68
2022-10-03T14:46:03.088Z,10.95
2022-10-03T14:48:36.799Z,11.43
2022-10-03T14:51:13.974Z,11.52
2022-10-03T14:53:48.855Z,8.65
2022-10-03T14:56:22.401Z,9.30
2022-10-03T15:01:23.754Z,9.93
2022-10-03T15:04:00.174Z,10.52
2022-10-03T15:06:53.862Z,11.15
2022-10-03T15:09:42.925Z,13.88
2022-10-03T15:12:22.524Z,9.45
2022-10-03T15:15:01.808Z,14.18
2022-10-03T15:17:33.056Z,10.02
2022-10-03T15:20:04.223Z,8.68
2022-10-03T15:22:35.717Z,9.18
2022-10-03T15:25:12.952Z,11.70
2022-10-03T15:27:44.883Z,9.80
2022-10-03T15:30:31.426Z,7.32
2022-10-03T15:33:08.867Z,11.70
2022-10-03T15:35:41.779Z,11.00
2022-10-03T15:38:15.289Z,12.15
2022-10-03T15:43:34.718Z,9.85
2022-10-03T15:46:14.039Z,12.60
2022-10-03T15:48:47.380Z,11.60
2022-10-03T15:51:24.152Z,11.93
2022-10-03T15:53:59.700Z,10.50
2022-10-03T15:56:34.322Z,8.80
2022-10-03T15:59:08.607Z,12.27
2022-10-03T16:01:40.802Z,11.18
2022-10-03T16:04:18.803Z,12.55
2022-10-03T16:06:51.088Z,8.20
2022-10-03T16:09:26.832Z,11.60
2022-10-03T16:12:06.709Z,11.15
2022-10-03T16:14:43.139Z,10.07
2022-10-03T16:17:18.942Z,11.20
2022-10-03T16:19:55.047Z,8.95
2022-10-03T16:22:27.607Z,11.18
2022-10-03T16:25:05.646Z,11.93
2022-10-03T16:27:37.534Z,10.40
2022-10-03T16:30:21.611Z,9.98
2022-10-03T16:33:03.997Z,8.57
2022-10-03T16:35:36.549Z,9.40
2022-10-03T16:38:08.508Z,9.15
2022-10-03T16:40:38.981Z,7.75
2022-10-03T16:43:11.735Z,8.70
2022-10-03T16:45:47.389Z,12.03
2022-10-03T16:48:38.959Z,8.27
2022-10-03T16:51:15.092Z,11.77
2022-10-03T16:53:45.178Z,8.88
2022-10-03T16:56:18.539Z,10.55
2022-10-03T16:58:53.117Z,11.32
2022-10-03T17:01:36.255Z,13.38
2022-10-03T17:04:21.208Z,12.73
2022-10-03T17:06:51.166Z,11.18
2022-10-03T17:09:29.524Z,13.23
2022-10-03T17:12:00.748Z,10.90
2022-10-03T17:14:36.749Z,12.45
2022-10-03T17:17:12.844Z,15.60
2022-10-03T17:19:45.776Z,8.50
2022-10-03T17:22:18.806Z,10.65
2022-10-03T17:24:53.769Z,8.90
2022-10-03T17:27:30.101Z,10.38
2022-10-03T17:30:03.419Z,11.23
2022-10-03T17:32:37.486Z,10.30
2022-10-03T17:35:13.654Z,11.75
2022-10-03T17:38:01.796Z,13.38
2022-10-03T17:40:51.008Z,12.00
2022-10-03T17:43:30.598Z,12.63
2022-10-03T17:46:07.056Z,12.35
2022-10-03T17:48:40.646Z,11.13
2022-10-03T17:51:39.466Z,12.85
2022-10-03T17:54:15.949Z,13.05
2022-10-03T17:56:51.512Z,10.80
2022-10-03T17:59:28.048Z,16.17
2022-10-03T18:02:00.443Z,11.02
2022-10-03T18:04:36.785Z,11.50
2022-10-03T18:07:10.516Z,11.57
2022-10-03T18:12:19.269Z,14.40
2022-10-03T18:15:08.579Z,11.98
2022-10-03T18:17:50.276Z,14.20
2022-10-03T18:20:45.341Z,13.82
2022-10-03T18:23:49.937Z,14.38
2022-10-03T18:26:24.123Z,16.13
2022-10-03T18:28:59.760Z,14.10
2022-10-03T18:31:31.127Z,14.70
2022-10-03T18:34:02.814Z,12.93
2022-10-03T18:36:37.413Z,16.48
2022-10-03T18:39:11.887Z,14.63
2022-10-03T18:41:46.416Z,14.93
2022-10-03T18:44:19.110Z,14.80
2022-10-03T18:46:52.809Z,18.70
2022-10-03T18:49:35.272Z,16.60
2022-10-03T18:52:11.775Z,17.30
2022-10-03T18:54:52.939Z,15.65
2022-10-03T18:57:26.632Z,16.70
2022-10-03T19:02:31.761Z,12.68
2022-10-03T19:05:08.701Z,16.33
2022-10-03T19:07:44.216Z,11.75
2022-10-03T19:10:37.416Z,14.30
2022-10-03T19:13:17.039Z,11.35
2022-10-03T19:16:06.160Z,16.73
2022-10-03T19:18:43.343Z,12.68
2022-10-03T19:21:18.936Z,18.30
2022-10-03T19:23:53.110Z,16.75
2022-10-03T19:26:25.671Z,14.68
2022-10-03T19:28:56.662Z,16.35
2022-10-03T19:31:30.769Z,17.50
2022-10-03T19:34:03.601Z,19.63
2022-10-03T19:36:35.959Z,24.73
2022-10-03T19:39:06.399Z,18.70
2022-10-03T19:41:39.409Z,21.85
2022-10-03T19:44:09.510Z,16.50
2022-10-03T19:46:57.779Z,19.73
2022-10-03T19:49:44.529Z,18.75
2022-10-03T19:52:18.616Z,20.30
2022-10-03T19:54:55.245Z,19.58
2022-10-03T19:57:28.434Z,18.67
2022-10-03T20:00:00.329Z,17.52
2022-10-03T20:02:30.248Z,14.93
2022-10-03T20:04:59.462Z,16.02
2022-10-03T20:07:46.611Z,18.20
2022-10-03T20:10:34.180Z,19.38
2022-10-03T20:13:04.158Z,20.48
2022-10-03T20:15:41.918Z,19.40
2022-10-03T20:18:17.485Z,15.77
2022-10-03T20:20:50.095Z,14.48
2022-10-03T20:23:21.041Z,14.85
2022-10-03T20:25:56.573Z,13.82
2022-10-03T20:28:37.619Z,17.08
2022-10-03T20:31:06.376Z,11.10
2022-10-03T20:33:38.052Z,16.17
2022-10-03T20:36:14.040Z,12.32
2022-10-03T20:39:03.729Z,12.02
2022-10-03T20:41:41.208Z,13.05
2022-10-03T20:44:17.897Z,15.27
2022-10-03T20:46:49.406Z,12.95
2022-10-03T20:49:28.255Z,14.50
2022-10-03T20:52:02.077Z,13.85
2022-10-03T20:54:37.295Z,15.90
2022-10-03T20:57:15.545Z,13.20
2022-10-03T20:59:48.039Z,13.27
2022-10-03T21:02:27.201Z,11.77
2022-10-03T21:04:59.563Z,14.02
2022-10-03T21:07:37.690Z,15.30
2022-10-03T21:10:25.935Z,13.45
2022-10-03T21:12:59.068Z,12.93
2022-10-03T21:15:38.298Z,14.70
2022-10-03T21:18:07.343Z,10.80
2022-10-03T21:20:39.341Z,12.82
2022-10-03T21:23:16.247Z,13.05
2022-10-03T21:25:45.373Z,12.90
2022-10-03T21:28:26.214Z,15.63
2022-10-03T21:31:18.350Z,15.88
2022-10-03T21:34:01.158Z,17.33
2022-10-03T21:36:35.685Z,19.13
2022-10-03T21:39:16.677Z,14.38
2022-10-03T21:41:57.929Z,18.27
2022-10-03T21:44:49.634Z,13.85
2022-10-03T21:47:29.098Z,16.42
2022-10-03T21:49:59.699Z,16.42
2022-10-03T21:52:51.232Z,18.50
2022-10-03T21:55:52.332Z,19.40
2022-10-03T21:58:45.466Z,18.90
2022-10-03T22:01:22.151Z,18.48
2022-10-03T22:03:55.025Z,20.48
2022-10-03T22:06:26.198Z,18.27
2022-10-03T22:08:55.006Z,21.42
2022-10-03T22:11:43.251Z,18.08
2022-10-03T22:14:18.933Z,21.90
2022-10-03T22:16:55.712Z,24.80
2022-10-03T22:19:33.824Z,17.55
2022-10-03T22:22:17.606Z,16.95
2022-10-03T22:25:00.010Z,21.27
2022-10-03T22:27:36.662Z,17.23
2022-10-03T22:30:08.124Z,21.42
2022-10-03T22:32:45.323Z,20.65
2022-10-03T22:35:32.182Z,22.02
2022-10-03T22:38:02.643Z,20.38
2022-10-03T22:40:32.967Z,23.63
2022-10-03T22:43:04.692Z,15.02
2022-10-03T22:45:38.087Z,21.65
2022-10-03T22:48:13.812Z,18.60
2022-10-03T22:50:43.226Z,19.25
2022-10-03T22:53:15.883Z,18.45
2022-10-03T22:55:46.560Z,15.50
2022-10-03T22:58:15.545Z,17.75
2022-10-03T23:00:46.069Z,20.85
2022-10-03T23:03:19.366Z,19.83
2022-10-03T23:06:23.103Z,20.35
2022-10-03T23:09:01.859Z,21.83
2022-10-03T23:11:31.929Z,17.15
2022-10-03T23:14:04.910Z,16.58
2022-10-03T23:16:52.693Z,18.67
2022-10-03T23:19:40.243Z,23.42
2022-10-03T23:22:16.701Z,17.77
2022-10-03T23:24:48.483Z,18.80
2022-10-03T23:27:46.100Z,18.58
2022-10-03T23:30:54.254Z,20.52
2022-10-03T23:33:50.613Z,18.40
2022-10-03T23:36:24.392Z,17.55
2022-10-03T23:38:59.994Z,21.20
2022-10-03T23:41:56.512Z,17.00
2022-10-03T23:44:35.395Z,16.20
2022-10-03T23:47:07.323Z,17.08
2022-10-03T23:49:38.802Z,17.13
2022-10-03T23:52:17.468Z,20.38
2022-10-03T23:54:49.584Z,21.75
2022-10-03T23:57:20.295Z,21.63
2022-10-03T23:59:49.519Z,20.42
